sensor_id;sensor_type;location;lat;lon;timestamp;temperature;humidity
48515;DHT22;34309;47.260;2.796;2023-05-20T00:00:50;20.10;26.10
48515;DHT22;34309;47.260;2.796;2023-05-20T00:03:24;20.10;26.20
48515;DHT22;34309;47.260;2.796;2023-05-20T00:05:58;20.10;26.10
48515;DHT22;34309;47.260;2.796;2023-05-20T00:08:32;20.10;26.10
48515;DHT22;34309;47.260;2.796;2023-05-20T00:11:05;20.10;26.00
48515;DHT22;34309;47.260;2.796;2023-05-20T00:13:40;20.10;26.00
48515;DHT22;34309;47.260;2.796;2023-05-20T00:16:14;20.10;26.10
48515;DHT22;34309;47.260;2.796;2023-05-20T00:18:43;20.10;26.10
48515;DHT22;34309;47.260;2.796;2023-05-20T00:21:17;20.10;26.10
48515;DHT22;34309;47.260;2.796;2023-05-20T00:23:51;20.10;26.00
48515;DHT22;34309;47.260;2.796;2023-05-20T00:26:25;20.10;26.10
48515;DHT22;34309;47.260;2.796;2023-05-20T00:29:00;20.10;26.10
48515;DHT22;34309;47.260;2.796;2023-05-20T00:31:34;20.10;26.10
48515;DHT22;34309;47.260;2.796;2023-05-20T00:34:08;20.10;26.10
48515;DHT22;34309;47.260;2.796;2023-05-20T00:36:41;20.10;26.10
48515;DHT22;34309;47.260;2.796;2023-05-20T00:39:15;20.10;26.10
48515;DHT22;34309;47.260;2.796;2023-05-20T00:41:48;20.10;26.10
48515;DHT22;34309;47.260;2.796;2023-05-20T00:44:26;20.10;25.90
48515;DHT22;34309;47.260;2.796;2023-05-20T00:47:00;20.10;26.00
48515;DHT22;34309;47.260;2.796;2023-05-20T00:49:34;20.10;26.00
48515;DHT22;34309;47.260;2.796;2023-05-20T00:52:09;20.10;26.00
48515;DHT22;34309;47.260;2.796;2023-05-20T00:54:43;20.10;26.10
48515;DHT22;34309;47.260;2.796;2023-05-20T00:57:18;20.00;26.00
48515;DHT22;34309;47.260;2.796;2023-05-20T00:59:54;20.00;26.00
48515;DHT22;34309;47.260;2.796;2023-05-20T01:02:28;20.00;26.00
48515;DHT22;34309;47.260;2.796;2023-05-20T01:05:02;20.00;26.00
48515;DHT22;34309;47.260;2.796;2023-05-20T01:07:36;20.00;26.00
48515;DHT22;34309;47.260;2.796;2023-05-20T01:10:10;20.00;26.00
48515;DHT22;34309;47.260;2.796;2023-05-20T01:12:48;20.00;26.10
48515;DHT22;34309;47.260;2.796;2023-05-20T01:15:26;20.00;26.00
48515;DHT22;34309;47.260;2.796;2023-05-20T01:18:02;20.00;26.00
48515;DHT22;34309;47.260;2.796;2023-05-20T01:20:37;20.00;26.20
48515;DHT22;34309;47.260;2.796;2023-05-20T01:23:13;20.00;26.10
48515;DHT22;34309;47.260;2.796;2023-05-20T01:25:48;20.00;26.10
48515;DHT22;34309;47.260;2.796;2023-05-20T01:28:23;20.00;26.00
48515;DHT22;34309;47.260;2.796;2023-05-20T01:31:00;20.00;26.10
48515;DHT22;34309;47.260;2.796;2023-05-20T01:33:35;20.00;26.20
48515;DHT22;34309;47.260;2.796;2023-05-20T01:36:10;20.00;26.20
48515;DHT22;34309;47.260;2.796;2023-05-20T01:38:47;20.00;26.10
48515;DHT22;34309;47.260;2.796;2023-05-20T01:41:23;20.00;26.00
48515;DHT22;34309;47.260;2.796;2023-05-20T01:43:53;20.00;26.20
48515;DHT22;34309;47.260;2.796;2023-05-20T01:46:23;20.00;26.20
48515;DHT22;34309;47.260;2.796;2023-05-20T01:48:57;20.00;26.10
48515;DHT22;34309;47.260;2.796;2023-05-20T01:51:30;20.00;26.00
48515;DHT22;34309;47.260;2.796;2023-05-20T01:54:07;20.00;26.20
48515;DHT22;34309;47.260;2.796;2023-05-20T01:56:41;20.00;26.20
48515;DHT22;34309;47.260;2.796;2023-05-20T01:59:14;20.00;26.20
48515;DHT22;34309;47.260;2.796;2023-05-20T02:01:48;19.90;26.10
48515;DHT22;34309;47.260;2.796;2023-05-20T02:04:22;19.90;26.10
48515;DHT22;34309;47.260;2.796;2023-05-20T02:06:56;19.90;26.20
48515;DHT22;34309;47.260;2.796;2023-05-20T02:09:31;19.90;26.20
48515;DHT22;34309;47.260;2.796;2023-05-20T02:12:05;19.90;26.30
48515;DHT22;34309;47.260;2.796;2023-05-20T02:14:39;19.90;26.20
48515;DHT22;34309;47.260;2.796;2023-05-20T02:17:14;19.90;26.20
48515;DHT22;34309;47.260;2.796;2023-05-20T02:19:48;19.80;26.20
48515;DHT22;34309;47.260;2.796;2023-05-20T02:22:22;19.90;26.20
48515;DHT22;34309;47.260;2.796;2023-05-20T02:25:16;19.90;26.20
48515;DHT22;34309;47.260;2.796;2023-05-20T02:27:50;19.90;26.20
48515;DHT22;34309;47.260;2.796;2023-05-20T02:30:24;19.90;26.20
48515;DHT22;34309;47.260;2.796;2023-05-20T02:32:53;19.80;26.10
48515;DHT22;34309;47.260;2.796;2023-05-20T02:35:27;19.90;26.20
48515;DHT22;34309;47.260;2.796;2023-05-20T02:38:01;19.90;26.20
48515;DHT22;34309;47.260;2.796;2023-05-20T02:40:36;19.90;26.10
48515;DHT22;34309;47.260;2.796;2023-05-20T02:43:10;19.90;26.10
48515;DHT22;34309;47.260;2.796;2023-05-20T02:45:44;19.90;26.20
48515;DHT22;34309;47.260;2.796;2023-05-20T02:48:17;19.90;26.20
48515;DHT22;34309;47.260;2.796;2023-05-20T02:50:51;19.90;26.20
48515;DHT22;34309;47.260;2.796;2023-05-20T02:53:25;19.90;26.20
48515;DHT22;34309;47.260;2.796;2023-05-20T02:56:01;19.90;26.40
48515;DHT22;34309;47.260;2.796;2023-05-20T02:58:35;19.90;26.30
48515;DHT22;34309;47.260;2.796;2023-05-20T03:01:09;19.80;26.20
48515;DHT22;34309;47.260;2.796;2023-05-20T03:03:43;19.80;26.30
48515;DHT22;34309;47.260;2.796;2023-05-20T03:06:17;19.80;26.30
48515;DHT22;34309;47.260;2.796;2023-05-20T03:08:51;19.80;26.40
48515;DHT22;34309;47.260;2.796;2023-05-20T03:11:26;19.80;26.30
48515;DHT22;34309;47.260;2.796;2023-05-20T03:14:00;19.80;26.30
48515;DHT22;34309;47.260;2.796;2023-05-20T03:16:34;19.80;26.30
48515;DHT22;34309;47.260;2.796;2023-05-20T03:19:08;19.80;26.30
48515;DHT22;34309;47.260;2.796;2023-05-20T03:21:42;19.80;26.50
48515;DHT22;34309;47.260;2.796;2023-05-20T03:24:17;19.80;26.40
48515;DHT22;34309;47.260;2.796;2023-05-20T03:26:53;19.80;26.40
48515;DHT22;34309;47.260;2.796;2023-05-20T03:29:27;19.80;26.40
48515;DHT22;34309;47.260;2.796;2023-05-20T03:32:01;19.80;26.30
48515;DHT22;34309;47.260;2.796;2023-05-20T03:34:34;19.80;26.40
48515;DHT22;34309;47.260;2.796;2023-05-20T03:37:09;19.80;26.30
48515;DHT22;34309;47.260;2.796;2023-05-20T03:39:42;19.80;26.40
48515;DHT22;34309;47.260;2.796;2023-05-20T03:42:18;19.70;26.30
48515;DHT22;34309;47.260;2.796;2023-05-20T03:44:51;19.70;26.30
48515;DHT22;34309;47.260;2.796;2023-05-20T03:47:25;19.70;26.30
48515;DHT22;34309;47.260;2.796;2023-05-20T03:49:59;19.70;26.40
48515;DHT22;34309;47.260;2.796;2023-05-20T03:52:33;19.70;26.20
48515;DHT22;34309;47.260;2.796;2023-05-20T03:55:07;19.70;26.30
48515;DHT22;34309;47.260;2.796;2023-05-20T03:57:43;19.70;26.40
48515;DHT22;34309;47.260;2.796;2023-05-20T04:00:16;19.70;26.40
48515;DHT22;34309;47.260;2.796;2023-05-20T04:02:50;19.70;26.30
48515;DHT22;34309;47.260;2.796;2023-05-20T04:05:24;19.70;26.30
48515;DHT22;34309;47.260;2.796;2023-05-20T04:07:58;19.70;26.40
48515;DHT22;34309;47.260;2.796;2023-05-20T04:10:32;19.70;26.40
48515;DHT22;34309;47.260;2.796;2023-05-20T04:13:07;19.70;26.30
48515;DHT22;34309;47.260;2.796;2023-05-20T04:15:41;19.70;26.30
48515;DHT22;34309;47.260;2.796;2023-05-20T04:18:18;19.70;26.40
48515;DHT22;34309;47.260;2.796;2023-05-20T04:20:53;19.70;26.40
48515;DHT22;34309;47.260;2.796;2023-05-20T04:23:27;19.70;26.30
48515;DHT22;34309;47.260;2.796;2023-05-20T04:26:01;19.70;26.30
48515;DHT22;34309;47.260;2.796;2023-05-20T04:28:36;19.70;26.40
48515;DHT22;34309;47.260;2.796;2023-05-20T04:31:13;19.70;26.30
48515;DHT22;34309;47.260;2.796;2023-05-20T04:33:43;19.70;26.40
48515;DHT22;34309;47.260;2.796;2023-05-20T04:36:17;19.70;26.30
48515;DHT22;34309;47.260;2.796;2023-05-20T04:38:51;19.70;26.40
48515;DHT22;34309;47.260;2.796;2023-05-20T04:41:25;19.70;26.40
48515;DHT22;34309;47.260;2.796;2023-05-20T04:43:56;19.70;26.40
48515;DHT22;34309;47.260;2.796;2023-05-20T04:46:26;19.70;26.50
48515;DHT22;34309;47.260;2.796;2023-05-20T04:49:00;19.70;26.40
48515;DHT22;34309;47.260;2.796;2023-05-20T04:51:35;19.60;26.30
48515;DHT22;34309;47.260;2.796;2023-05-20T04:54:09;19.60;26.40
48515;DHT22;34309;47.260;2.796;2023-05-20T04:56:42;19.70;26.30
48515;DHT22;34309;47.260;2.796;2023-05-20T04:59:13;19.70;26.40
48515;DHT22;34309;47.260;2.796;2023-05-20T05:01:47;19.60;26.30
48515;DHT22;34309;47.260;2.796;2023-05-20T05:04:20;19.60;26.40
48515;DHT22;34309;47.260;2.796;2023-05-20T05:06:54;19.70;26.40
48515;DHT22;34309;47.260;2.796;2023-05-20T05:09:30;19.60;26.30
48515;DHT22;34309;47.260;2.796;2023-05-20T05:12:05;19.60;26.20
48515;DHT22;34309;47.260;2.796;2023-05-20T05:14:40;19.60;26.30
48515;DHT22;34309;47.260;2.796;2023-05-20T05:17:13;19.60;26.30
48515;DHT22;34309;47.260;2.796;2023-05-20T05:19:49;19.60;26.40
48515;DHT22;34309;47.260;2.796;2023-05-20T05:22:23;19.60;26.50
48515;DHT22;34309;47.260;2.796;2023-05-20T05:24:57;19.70;26.40
48515;DHT22;34309;47.260;2.796;2023-05-20T05:27:31;19.60;26.30
48515;DHT22;34309;47.260;2.796;2023-05-20T05:30:07;19.60;26.40
48515;DHT22;34309;47.260;2.796;2023-05-20T05:32:41;19.70;26.40
48515;DHT22;34309;47.260;2.796;2023-05-20T05:35:15;19.60;26.40
48515;DHT22;34309;47.260;2.796;2023-05-20T05:37:49;19.60;26.50
48515;DHT22;34309;47.260;2.796;2023-05-20T05:40:23;19.60;26.30
48515;DHT22;34309;47.260;2.796;2023-05-20T05:42:57;19.60;26.30
48515;DHT22;34309;47.260;2.796;2023-05-20T05:45:32;19.60;26.40
48515;DHT22;34309;47.260;2.796;2023-05-20T05:48:06;19.60;26.30
48515;DHT22;34309;47.260;2.796;2023-05-20T05:50:43;19.60;26.40
48515;DHT22;34309;47.260;2.796;2023-05-20T05:53:18;19.60;26.40
48515;DHT22;34309;47.260;2.796;2023-05-20T05:55:52;19.60;26.40
48515;DHT22;34309;47.260;2.796;2023-05-20T05:58:25;19.60;26.50
48515;DHT22;34309;47.260;2.796;2023-05-20T06:01:00;19.60;26.50
48515;DHT22;34309;47.260;2.796;2023-05-20T06:03:34;19.60;26.40
48515;DHT22;34309;47.260;2.796;2023-05-20T06:06:08;19.60;26.60
48515;DHT22;34309;47.260;2.796;2023-05-20T06:08:41;19.60;26.40
48515;DHT22;34309;47.260;2.796;2023-05-20T06:11:15;19.60;26.40
48515;DHT22;34309;47.260;2.796;2023-05-20T06:13:49;19.60;26.50
48515;DHT22;34309;47.260;2.796;2023-05-20T06:16:25;19.60;26.40
48515;DHT22;34309;47.260;2.796;2023-05-20T06:18:58;19.60;26.50
48515;DHT22;34309;47.260;2.796;2023-05-20T06:21:32;19.60;26.40
48515;DHT22;34309;47.260;2.796;2023-05-20T06:24:06;19.60;26.50
48515;DHT22;34309;47.260;2.796;2023-05-20T06:26:39;19.60;26.50
48515;DHT22;34309;47.260;2.796;2023-05-20T06:29:13;19.60;26.40
48515;DHT22;34309;47.260;2.796;2023-05-20T06:31:48;19.60;26.50
48515;DHT22;34309;47.260;2.796;2023-05-20T06:34:22;19.60;26.50
48515;DHT22;34309;47.260;2.796;2023-05-20T06:36:59;19.60;26.50
48515;DHT22;34309;47.260;2.796;2023-05-20T06:39:33;19.60;26.50
48515;DHT22;34309;47.260;2.796;2023-05-20T06:42:07;19.60;26.50
48515;DHT22;34309;47.260;2.796;2023-05-20T06:44:41;19.60;26.60
48515;DHT22;34309;47.260;2.796;2023-05-20T06:47:16;19.60;26.60
48515;DHT22;34309;47.260;2.796;2023-05-20T06:49:50;19.60;26.60
48515;DHT22;34309;47.260;2.796;2023-05-20T06:52:24;19.60;26.60
48515;DHT22;34309;47.260;2.796;2023-05-20T06:54:58;19.60;26.60
48515;DHT22;34309;47.260;2.796;2023-05-20T06:57:31;19.60;26.50
48515;DHT22;34309;47.260;2.796;2023-05-20T07:00:06;19.60;26.70
48515;DHT22;34309;47.260;2.796;2023-05-20T07:02:42;19.60;26.40
48515;DHT22;34309;47.260;2.796;2023-05-20T07:05:16;19.60;26.40
48515;DHT22;34309;47.260;2.796;2023-05-20T07:07:49;19.60;26.40
48515;DHT22;34309;47.260;2.796;2023-05-20T07:10:23;19.60;26.50
48515;DHT22;34309;47.260;2.796;2023-05-20T07:12:57;19.60;26.50
48515;DHT22;34309;47.260;2.796;2023-05-20T07:15:31;19.60;26.40
48515;DHT22;34309;47.260;2.796;2023-05-20T07:18:06;19.60;26.50
48515;DHT22;34309;47.260;2.796;2023-05-20T07:20:40;19.60;26.60
48515;DHT22;34309;47.260;2.796;2023-05-20T07:23:13;19.60;26.40
48515;DHT22;34309;47.260;2.796;2023-05-20T07:25:47;19.60;26.40
48515;DHT22;34309;47.260;2.796;2023-05-20T07:28:16;19.60;26.40
48515;DHT22;34309;47.260;2.796;2023-05-20T07:30:50;19.60;26.70
48515;DHT22;34309;47.260;2.796;2023-05-20T07:33:25;19.60;26.60
48515;DHT22;34309;47.260;2.796;2023-05-20T07:36:00;19.60;26.40
48515;DHT22;34309;47.260;2.796;2023-05-20T07:38:30;19.60;26.40
48515;DHT22;34309;47.260;2.796;2023-05-20T07:41:04;19.50;26.40
48515;DHT22;34309;47.260;2.796;2023-05-20T07:43:39;19.60;26.60
48515;DHT22;34309;47.260;2.796;2023-05-20T07:46:13;19.60;26.60
48515;DHT22;34309;47.260;2.796;2023-05-20T07:48:48;19.60;26.70
48515;DHT22;34309;47.260;2.796;2023-05-20T07:51:22;19.60;26.60
48515;DHT22;34309;47.260;2.796;2023-05-20T07:53:56;19.60;26.70
48515;DHT22;34309;47.260;2.796;2023-05-20T07:56:30;19.60;26.80
48515;DHT22;34309;47.260;2.796;2023-05-20T07:59:04;19.50;27.30
48515;DHT22;34309;47.260;2.796;2023-05-20T08:01:40;19.60;26.80
48515;DHT22;34309;47.260;2.796;2023-05-20T08:04:15;19.60;26.80
48515;DHT22;34309;47.260;2.796;2023-05-20T08:06:49;19.60;26.60
48515;DHT22;34309;47.260;2.796;2023-05-20T08:09:23;19.60;26.80
48515;DHT22;34309;47.260;2.796;2023-05-20T08:11:57;19.60;26.80
48515;DHT22;34309;47.260;2.796;2023-05-20T08:14:30;19.60;26.60
48515;DHT22;34309;47.260;2.796;2023-05-20T08:17:04;19.60;26.60
48515;DHT22;34309;47.260;2.796;2023-05-20T08:19:39;19.60;26.60
48515;DHT22;34309;47.260;2.796;2023-05-20T08:22:13;19.60;26.70
48515;DHT22;34309;47.260;2.796;2023-05-20T08:24:46;19.60;26.80
48515;DHT22;34309;47.260;2.796;2023-05-20T08:27:20;19.60;26.80
48515;DHT22;34309;47.260;2.796;2023-05-20T08:29:54;19.60;26.80
48515;DHT22;34309;47.260;2.796;2023-05-20T08:32:28;19.60;26.60
48515;DHT22;34309;47.260;2.796;2023-05-20T08:35:05;19.60;26.80
48515;DHT22;34309;47.260;2.796;2023-05-20T08:37:39;19.60;26.80
48515;DHT22;34309;47.260;2.796;2023-05-20T08:40:13;19.60;26.70
48515;DHT22;34309;47.260;2.796;2023-05-20T08:42:48;19.60;26.60
48515;DHT22;34309;47.260;2.796;2023-05-20T08:45:24;19.60;26.60
48515;DHT22;34309;47.260;2.796;2023-05-20T08:48:00;19.60;26.70
48515;DHT22;34309;47.260;2.796;2023-05-20T08:50:35;19.60;26.70
48515;DHT22;34309;47.260;2.796;2023-05-20T08:53:09;19.60;26.70
48515;DHT22;34309;47.260;2.796;2023-05-20T08:55:45;19.60;26.80
48515;DHT22;34309;47.260;2.796;2023-05-20T08:58:21;19.60;26.70
48515;DHT22;34309;47.260;2.796;2023-05-20T09:00:55;19.60;26.80
48515;DHT22;34309;47.260;2.796;2023-05-20T09:03:29;19.60;26.80
48515;DHT22;34309;47.260;2.796;2023-05-20T09:06:06;19.60;26.70
48515;DHT22;34309;47.260;2.796;2023-05-20T09:08:41;19.60;26.70
48515;DHT22;34309;47.260;2.796;2023-05-20T09:11:16;19.60;26.40
48515;DHT22;34309;47.260;2.796;2023-05-20T09:13:49;19.60;26.40
48515;DHT22;34309;47.260;2.796;2023-05-20T09:16:24;19.70;26.80
48515;DHT22;34309;47.260;2.796;2023-05-20T09:18:58;19.60;26.60
48515;DHT22;34309;47.260;2.796;2023-05-20T09:21:34;19.60;26.60
48515;DHT22;34309;47.260;2.796;2023-05-20T09:24:08;19.70;26.60
48515;DHT22;34309;47.260;2.796;2023-05-20T09:26:42;19.60;26.70
48515;DHT22;34309;47.260;2.796;2023-05-20T09:29:16;19.60;26.70
48515;DHT22;34309;47.260;2.796;2023-05-20T09:31:51;19.60;26.70
48515;DHT22;34309;47.260;2.796;2023-05-20T09:34:25;19.60;27.40
48515;DHT22;34309;47.260;2.796;2023-05-20T09:37:00;19.60;26.80
48515;DHT22;34309;47.260;2.796;2023-05-20T09:39:42;19.70;26.90
48515;DHT22;34309;47.260;2.796;2023-05-20T09:42:22;19.70;26.90
48515;DHT22;34309;47.260;2.796;2023-05-20T09:44:58;19.60;26.80
48515;DHT22;34309;47.260;2.796;2023-05-20T09:47:32;19.60;26.80
48515;DHT22;34309;47.260;2.796;2023-05-20T09:50:08;19.60;26.70
48515;DHT22;34309;47.260;2.796;2023-05-20T09:52:43;19.70;26.90
48515;DHT22;34309;47.260;2.796;2023-05-20T09:55:18;19.70;26.90
48515;DHT22;34309;47.260;2.796;2023-05-20T09:57:53;19.70;26.80
48515;DHT22;34309;47.260;2.796;2023-05-20T10:00:27;19.70;26.80
48515;DHT22;34309;47.260;2.796;2023-05-20T10:03:01;19.70;26.80
48515;DHT22;34309;47.260;2.796;2023-05-20T10:05:37;19.70;26.80
48515;DHT22;34309;47.260;2.796;2023-05-20T10:08:36;19.70;26.80
48515;DHT22;34309;47.260;2.796;2023-05-20T10:11:18;19.70;26.90
48515;DHT22;34309;47.260;2.796;2023-05-20T10:14:12;19.70;26.90
48515;DHT22;34309;47.260;2.796;2023-05-20T10:16:52;19.70;26.80
48515;DHT22;34309;47.260;2.796;2023-05-20T10:19:28;19.70;26.90
48515;DHT22;34309;47.260;2.796;2023-05-20T10:22:03;19.70;26.80
48515;DHT22;34309;47.260;2.796;2023-05-20T10:24:40;19.70;26.80
48515;DHT22;34309;47.260;2.796;2023-05-20T10:27:16;19.70;26.90
48515;DHT22;34309;47.260;2.796;2023-05-20T10:29:51;19.70;26.70
48515;DHT22;34309;47.260;2.796;2023-05-20T10:32:26;19.70;26.70
48515;DHT22;34309;47.260;2.796;2023-05-20T10:35:01;19.70;26.70
48515;DHT22;34309;47.260;2.796;2023-05-20T10:37:41;19.70;26.70
48515;DHT22;34309;47.260;2.796;2023-05-20T10:40:18;19.80;26.80
48515;DHT22;34309;47.260;2.796;2023-05-20T10:42:52;19.70;26.70
48515;DHT22;34309;47.260;2.796;2023-05-20T10:45:28;19.70;26.70
48515;DHT22;34309;47.260;2.796;2023-05-20T10:48:04;19.70;26.70
48515;DHT22;34309;47.260;2.796;2023-05-20T10:50:40;19.70;26.80
48515;DHT22;34309;47.260;2.796;2023-05-20T10:53:14;19.80;26.80
48515;DHT22;34309;47.260;2.796;2023-05-20T10:55:50;19.70;26.80
48515;DHT22;34309;47.260;2.796;2023-05-20T10:58:25;19.70;27.00
48515;DHT22;34309;47.260;2.796;2023-05-20T11:01:01;19.70;26.90
48515;DHT22;34309;47.260;2.796;2023-05-20T11:03:35;19.80;27.00
48515;DHT22;34309;47.260;2.796;2023-05-20T11:06:12;19.70;27.00
48515;DHT22;34309;47.260;2.796;2023-05-20T11:08:47;19.80;27.00
48515;DHT22;34309;47.260;2.796;2023-05-20T11:11:22;19.80;27.10
48515;DHT22;34309;47.260;2.796;2023-05-20T11:13:56;19.80;26.80
48515;DHT22;34309;47.260;2.796;2023-05-20T11:16:31;19.80;26.80
48515;DHT22;34309;47.260;2.796;2023-05-20T11:19:06;19.80;26.90
48515;DHT22;34309;47.260;2.796;2023-05-20T11:21:42;19.80;26.80
48515;DHT22;34309;47.260;2.796;2023-05-20T11:24:23;19.80;26.90
48515;DHT22;34309;47.260;2.796;2023-05-20T11:27:00;19.80;27.00
48515;DHT22;34309;47.260;2.796;2023-05-20T11:29:34;19.80;27.00
48515;DHT22;34309;47.260;2.796;2023-05-20T11:32:08;19.80;26.90
48515;DHT22;34309;47.260;2.796;2023-05-20T11:34:42;19.80;26.90
48515;DHT22;34309;47.260;2.796;2023-05-20T11:37:18;19.80;27.00
48515;DHT22;34309;47.260;2.796;2023-05-20T11:40:03;19.80;27.00
48515;DHT22;34309;47.260;2.796;2023-05-20T11:42:43;19.80;27.00
48515;DHT22;34309;47.260;2.796;2023-05-20T11:45:17;19.80;27.00
48515;DHT22;34309;47.260;2.796;2023-05-20T11:48:01;19.80;26.90
48515;DHT22;34309;47.260;2.796;2023-05-20T11:50:36;19.80;27.00
48515;DHT22;34309;47.260;2.796;2023-05-20T11:53:15;19.90;27.20
48515;DHT22;34309;47.260;2.796;2023-05-20T11:55:49;19.80;27.10
48515;DHT22;34309;47.260;2.796;2023-05-20T11:58:25;19.90;27.10
48515;DHT22;34309;47.260;2.796;2023-05-20T12:00:59;19.90;27.10
48515;DHT22;34309;47.260;2.796;2023-05-20T12:03:33;19.90;27.20
48515;DHT22;34309;47.260;2.796;2023-05-20T12:06:08;19.90;27.10
48515;DHT22;34309;47.260;2.796;2023-05-20T12:08:44;19.90;27.20
48515;DHT22;34309;47.260;2.796;2023-05-20T12:11:18;19.90;27.20
48515;DHT22;34309;47.260;2.796;2023-05-20T12:13:54;19.90;27.10
48515;DHT22;34309;47.260;2.796;2023-05-20T12:16:29;19.90;27.10
48515;DHT22;34309;47.260;2.796;2023-05-20T12:19:04;19.90;27.10
48515;DHT22;34309;47.260;2.796;2023-05-20T12:21:38;19.90;27.00
48515;DHT22;34309;47.260;2.796;2023-05-20T12:24:12;19.90;27.10
48515;DHT22;34309;47.260;2.796;2023-05-20T12:26:45;19.90;27.10
48515;DHT22;34309;47.260;2.796;2023-05-20T12:29:21;19.90;27.10
48515;DHT22;34309;47.260;2.796;2023-05-20T12:31:55;19.90;27.00
48515;DHT22;34309;47.260;2.796;2023-05-20T12:34:28;19.90;27.10
48515;DHT22;34309;47.260;2.796;2023-05-20T12:37:04;19.90;27.00
48515;DHT22;34309;47.260;2.796;2023-05-20T12:39:38;19.90;27.00
48515;DHT22;34309;47.260;2.796;2023-05-20T12:42:12;20.00;27.10
48515;DHT22;34309;47.260;2.796;2023-05-20T12:44:49;20.00;27.10
48515;DHT22;34309;47.260;2.796;2023-05-20T12:47:23;20.00;27.10
48515;DHT22;34309;47.260;2.796;2023-05-20T12:49:57;20.00;27.20
48515;DHT22;34309;47.260;2.796;2023-05-20T12:52:31;20.00;27.10
48515;DHT22;34309;47.260;2.796;2023-05-20T12:55:05;20.00;27.10
48515;DHT22;34309;47.260;2.796;2023-05-20T12:57:45;20.00;27.20
48515;DHT22;34309;47.260;2.796;2023-05-20T13:00:21;20.00;27.10
48515;DHT22;34309;47.260;2.796;2023-05-20T13:02:54;20.00;27.10
48515;DHT22;34309;47.260;2.796;2023-05-20T13:05:28;20.00;27.10
48515;DHT22;34309;47.260;2.796;2023-05-20T13:08:01;20.00;27.10
48515;DHT22;34309;47.260;2.796;2023-05-20T13:10:35;20.00;27.10
48515;DHT22;34309;47.260;2.796;2023-05-20T13:13:09;20.00;27.10
48515;DHT22;34309;47.260;2.796;2023-05-20T13:15:44;20.00;27.20
48515;DHT22;34309;47.260;2.796;2023-05-20T13:18:18;20.10;27.20
48515;DHT22;34309;47.260;2.796;2023-05-20T13:20:52;20.10;27.30
48515;DHT22;34309;47.260;2.796;2023-05-20T13:23:26;20.10;27.20
48515;DHT22;34309;47.260;2.796;2023-05-20T13:26:00;20.10;27.20
48515;DHT22;34309;47.260;2.796;2023-05-20T13:28:34;20.10;27.30
48515;DHT22;34309;47.260;2.796;2023-05-20T13:31:09;20.10;27.30
48515;DHT22;34309;47.260;2.796;2023-05-20T13:33:43;20.10;27.30
48515;DHT22;34309;47.260;2.796;2023-05-20T13:36:17;20.10;27.30
48515;DHT22;34309;47.260;2.796;2023-05-20T13:38:51;20.10;27.20
48515;DHT22;34309;47.260;2.796;2023-05-20T13:41:25;20.10;27.20
48515;DHT22;34309;47.260;2.796;2023-05-20T13:43:59;20.10;27.20
48515;DHT22;34309;47.260;2.796;2023-05-20T13:46:34;20.20;27.20
48515;DHT22;34309;47.260;2.796;2023-05-20T13:49:08;20.20;27.40
48515;DHT22;34309;47.260;2.796;2023-05-20T13:51:42;20.10;27.20
48515;DHT22;34309;47.260;2.796;2023-05-20T13:54:15;20.20;27.30
48515;DHT22;34309;47.260;2.796;2023-05-20T13:56:51;20.20;27.30
48515;DHT22;34309;47.260;2.796;2023-05-20T13:59:25;20.20;27.30
48515;DHT22;34309;47.260;2.796;2023-05-20T14:02:00;20.20;27.40
48515;DHT22;34309;47.260;2.796;2023-05-20T14:04:34;20.20;27.40
48515;DHT22;34309;47.260;2.796;2023-05-20T14:07:10;20.20;27.30
48515;DHT22;34309;47.260;2.796;2023-05-20T14:09:44;20.20;27.30
48515;DHT22;34309;47.260;2.796;2023-05-20T14:12:18;20.20;27.30
48515;DHT22;34309;47.260;2.796;2023-05-20T14:14:53;20.20;27.20
48515;DHT22;34309;47.260;2.796;2023-05-20T14:17:29;20.20;27.80
48515;DHT22;34309;47.260;2.796;2023-05-20T14:20:02;20.20;27.30
48515;DHT22;34309;47.260;2.796;2023-05-20T14:22:37;20.20;27.20
48515;DHT22;34309;47.260;2.796;2023-05-20T14:25:10;20.20;27.20
48515;DHT22;34309;47.260;2.796;2023-05-20T14:27:44;20.20;27.20
48515;DHT22;34309;47.260;2.796;2023-05-20T14:30:18;20.20;27.20
48515;DHT22;34309;47.260;2.796;2023-05-20T14:32:53;20.20;27.20
48515;DHT22;34309;47.260;2.796;2023-05-20T14:35:26;20.30;27.30
48515;DHT22;34309;47.260;2.796;2023-05-20T14:38:00;20.30;27.30
48515;DHT22;34309;47.260;2.796;2023-05-20T14:40:34;20.30;27.30
48515;DHT22;34309;47.260;2.796;2023-05-20T14:43:09;20.30;27.30
48515;DHT22;34309;47.260;2.796;2023-05-20T14:45:43;20.30;27.30
48515;DHT22;34309;47.260;2.796;2023-05-20T14:48:19;20.30;27.30
48515;DHT22;34309;47.260;2.796;2023-05-20T14:50:53;20.30;27.30
48515;DHT22;34309;47.260;2.796;2023-05-20T14:53:27;20.30;27.30
48515;DHT22;34309;47.260;2.796;2023-05-20T14:56:01;20.30;27.20
48515;DHT22;34309;47.260;2.796;2023-05-20T14:58:35;20.40;27.30
48515;DHT22;34309;47.260;2.796;2023-05-20T15:01:09;20.30;27.30
48515;DHT22;34309;47.260;2.796;2023-05-20T15:03:44;20.30;27.30
48515;DHT22;34309;47.260;2.796;2023-05-20T15:06:18;20.30;27.30
48515;DHT22;34309;47.260;2.796;2023-05-20T15:08:52;20.40;27.30
48515;DHT22;34309;47.260;2.796;2023-05-20T15:11:25;20.40;27.40
48515;DHT22;34309;47.260;2.796;2023-05-20T15:13:59;20.40;27.40
48515;DHT22;34309;47.260;2.796;2023-05-20T15:16:33;20.40;27.40
48515;DHT22;34309;47.260;2.796;2023-05-20T15:19:08;20.40;27.40
48515;DHT22;34309;47.260;2.796;2023-05-20T15:21:42;20.40;27.30
48515;DHT22;34309;47.260;2.796;2023-05-20T15:24:16;20.40;27.30
48515;DHT22;34309;47.260;2.796;2023-05-20T15:26:51;20.40;27.30
48515;DHT22;34309;47.260;2.796;2023-05-20T15:29:25;20.40;27.40
48515;DHT22;34309;47.260;2.796;2023-05-20T15:31:59;20.40;27.40
48515;DHT22;34309;47.260;2.796;2023-05-20T15:34:35;20.40;27.30
48515;DHT22;34309;47.260;2.796;2023-05-20T15:37:09;20.40;27.30
48515;DHT22;34309;47.260;2.796;2023-05-20T15:39:43;20.40;27.40
48515;DHT22;34309;47.260;2.796;2023-05-20T15:42:17;20.40;27.30
48515;DHT22;34309;47.260;2.796;2023-05-20T15:44:50;20.40;27.20
48515;DHT22;34309;47.260;2.796;2023-05-20T15:47:24;20.40;27.20
48515;DHT22;34309;47.260;2.796;2023-05-20T15:49:59;20.40;27.30
48515;DHT22;34309;47.260;2.796;2023-05-20T15:52:36;20.40;27.20
48515;DHT22;34309;47.260;2.796;2023-05-20T15:55:10;20.40;27.20
48515;DHT22;34309;47.260;2.796;2023-05-20T15:57:44;20.40;27.30
48515;DHT22;34309;47.260;2.796;2023-05-20T16:00:18;20.40;27.40
48515;DHT22;34309;47.260;2.796;2023-05-20T16:02:52;20.50;27.40
48515;DHT22;34309;47.260;2.796;2023-05-20T16:05:28;20.50;27.30
48515;DHT22;34309;47.260;2.796;2023-05-20T16:08:02;20.50;27.40
48515;DHT22;34309;47.260;2.796;2023-05-20T16:10:36;20.50;27.40
48515;DHT22;34309;47.260;2.796;2023-05-20T16:13:09;20.50;27.30
48515;DHT22;34309;47.260;2.796;2023-05-20T16:15:43;20.50;27.40